Terminal Aerodrome Forecast
Issued by NWS

Home | Current Version | Previous Version | Text Only | Print | Product List | Glossary On
Versions: 1 2 3 4 5 6 7 8 9 10 11 12 13 14 15
221
FTUS43 KIND 071120
TAFLAF
TAF
KLAF 071120Z 0712/0812 22006KT P6SM BKN150
     FM071500 22012G18KT P6SM BKN150
     FM071700 22015G22KT P6SM SCT050 BKN150
     FM072300 22011KT P6SM SCT040 BKN150
     FM080200 26006KT P6SM SCT025 OVC040
      AMD LTD TO CLD VIS AND WIND TIL 071400=

USA.gov is the U.S. government's official web portal to all federal, state and local government web resources and services.